Ilyas Araz — TCAS9 — position and weather

sailwx.info

Track history (hours):
 
Tides and Currents Weather Stations Pressure Air Temp Water Temp Dewpoint Dewpoint Depression Visibility Wind Speed Wind Dir Waves Ship Positions

Ilyas Araz

Last reported at 2014-Sep-19 10:30 UTC. Time now 2014-Oct-01 04:04 UTC.
Position N 40°53' E 029°12'.
Warning: this ship's position is 11 days out of date.

Length 64 m; draft 5.4 m.

Type: Cargo ship. MMSI: 271002108.

Date/timePositionNaut miles runAvg speedWind from/ knotsBaromVisibWave heightAir tempDewpointWater temp
2014-Sep-19 10:30N 40°53' E 029°12'0 0.0
2014-Sep-19 09:11N 40°53' E 029°12'0 0.1
2014-Sep-19 08:23N 40°53' E 029°12'0 0.1
2014-Sep-19 05:23N 40°52' E 029°12'0 0.0
2014-Sep-19 04:17N 40°52' E 029°12'0 0.0
2014-Sep-19 03:23N 40°52' E 029°12'0 0.0
2014-Sep-19 02:11N 40°52' E 029°12'0 0.1
2014-Sep-19 01:29N 40°53' E 029°12'1 0.8
2014-Sep-19 00:33N 40°52' E 029°13'10 0.4
2014-Sep-17 22:12N 40°44' E 029°22'6 9.2
2014-Sep-17 21:31N 40°44' E 029°14'9 9.6
2014-Sep-17 20:33N 40°44' E 029°01'  
Track history (hours):
 
Tides and Currents Weather Stations Pressure Air Temp Water Temp Dewpoint Dewpoint Depression Visibility Wind Speed Wind Dir Waves Ship Positions

Ilyas Araz

Last reported at 2014-Sep-19 10:30 UTC. Time now 2014-Oct-01 04:04 UTC.
Position N 40°53' E 029°12'.
Warning: this ship's position is 11 days out of date.

Length 64 m; draft 5.4 m.

Type: Cargo ship. MMSI: 271002108.

Date/timePositionNaut miles runAvg speedWind from/ knotsBaromVisibWave heightAir tempDewpointWater temp
2014-Sep-19 10:30N 40°53' E 029°12'0 0.0
2014-Sep-19 09:11N 40°53' E 029°12'0 0.1
2014-Sep-19 08:23N 40°53' E 029°12'0 0.1
2014-Sep-19 05:23N 40°52' E 029°12'0 0.0
2014-Sep-19 04:17N 40°52' E 029°12'0 0.0
2014-Sep-19 03:23N 40°52' E 029°12'0 0.0
2014-Sep-19 02:11N 40°52' E 029°12'0 0.1
2014-Sep-19 01:29N 40°53' E 029°12'1 0.8
2014-Sep-19 00:33N 40°52' E 029°13'10 0.4
2014-Sep-17 22:12N 40°44' E 029°22'6 9.2
2014-Sep-17 21:31N 40°44' E 029°14'9 9.6
2014-Sep-17 20:33N 40°44' E 029°01'  

Dump ship's entire track history